Time;durP1;ratioP1;P1;durP2;ratioP2;P2;SDS_P1;SDS_P2;PMS_P1;PMS_P2;Temp;Humidity;BMP_temperature;BMP_pressure;BME280_temperature;BME280_humidity;BME280_pressure;Samples;Min_cycle;Max_cycle;Signal;HPM_P1;HPM_P2
2023/09/02 00:02:07;;;;;;;9.10;4.55;;;13.60;99.90;;;;;;5047395;28;20075;-68
2023/09/02 00:04:32;;;;;;;9.15;4.22;;;13.60;99.90;;;;;;5039827;28;20040;-69
2023/09/02 00:06:58;;;;;;;7.30;4.18;;;13.60;99.90;;;;;;5065784;28;20036;-69
2023/09/02 00:09:24;;;;;;;8.13;4.68;;;13.60;99.90;;;;;;5048338;28;20565;-69
2023/09/02 00:11:50;;;;;;;6.93;4.10;;;13.50;99.90;;;;;;5065570;28;20112;-69
2023/09/02 00:14:15;;;;;;;10.57;4.30;;;13.60;99.90;;;;;;5066116;28;20687;-68
2023/09/02 00:16:41;;;;;;;6.85;4.03;;;13.60;99.90;;;;;;5066731;28;20025;-68
2023/09/02 00:19:07;;;;;;;7.22;4.47;;;13.50;99.90;;;;;;5065942;28;20052;-68
2023/09/02 00:21:33;;;;;;;6.88;4.18;;;13.60;99.90;;;;;;5064294;28;20079;-68
2023/09/02 00:24:05;;;;;;;8.30;4.10;;;13.50;99.90;;;;;;5065093;28;20052;-68
2023/09/02 00:26:32;;;;;;;8.05;4.20;;;13.50;99.90;;;;;;5064262;28;20091;-69
2023/09/02 00:28:59;;;;;;;6.72;4.03;;;13.50;99.90;;;;;;5063475;28;20045;-68
2023/09/02 00:31:26;;;;;;;7.20;3.97;;;13.50;99.90;;;;;;5064676;28;20051;-68
2023/09/02 00:33:52;;;;;;;7.82;4.10;;;13.50;99.90;;;;;;5063634;28;20093;-67
2023/09/02 00:36:18;;;;;;;7.97;4.43;;;13.50;99.90;;;;;;5062371;28;20036;-69
2023/09/02 00:38:44;;;;;;;7.88;3.80;;;13.50;99.90;;;;;;5037496;28;20056;-68
2023/09/02 00:41:15;;;;;;;7.57;3.88;;;13.50;99.90;;;;;;5065298;28;20413;-69
2023/09/02 00:43:41;;;;;;;;;;;13.50;99.90;;;;;;5049241;28;20044;-69
2023/09/02 00:46:09;;;;;;;8.15;4.28;;;13.50;99.90;;;;;;5064322;28;19931;-69
2023/09/02 00:48:36;;;;;;;9.45;4.25;;;13.50;99.90;;;;;;5061650;28;20036;-68
2023/09/02 00:51:02;;;;;;;7.07;3.83;;;13.50;99.90;;;;;;5067862;28;20041;-68
2023/09/02 00:53:28;;;;;;;7.88;3.92;;;13.50;99.90;;;;;;5061152;28;20075;-68
2023/09/02 00:55:54;;;;;;;9.10;3.70;;;13.50;99.90;;;;;;5064935;28;20080;-68
2023/09/02 00:58:20;;;;;;;7.00;4.13;;;13.50;99.90;;;;;;5065805;28;20068;-68
2023/09/02 01:00:47;;;;;;;6.25;3.60;;;13.50;99.90;;;;;;5065624;28;20060;-68
2023/09/02 01:03:16;;;;;;;9.30;4.03;;;13.40;99.90;;;;;;5053656;28;20057;-67
2023/09/02 01:05:45;;;;;;;6.85;3.72;;;13.40;99.90;;;;;;5045255;28;20083;-68
2023/09/02 01:08:12;;;;;;;6.03;3.70;;;13.40;99.90;;;;;;5063195;28;20036;-69
2023/09/02 01:10:37;;;;;;;6.93;3.60;;;13.40;99.90;;;;;;5064855;28;20401;-68
2023/09/02 01:13:04;;;;;;;9.18;4.60;;;13.40;99.90;;;;;;5042816;28;20048;-69
2023/09/02 01:15:31;;;;;;;10.23;4.35;;;13.40;99.90;;;;;;5050321;28;20543;-68
2023/09/02 01:17:57;;;;;;;7.63;3.90;;;13.40;99.90;;;;;;5064885;28;20057;-68
2023/09/02 01:20:28;;;;;;;7.50;4.03;;;13.40;99.90;;;;;;5041791;28;20109;-68
2023/09/02 01:23:24;;;;;;;8.63;4.20;;;13.40;99.90;;;;;;5064209;28;20059;-69
2023/09/02 01:26:32;;;;;;;7.57;3.88;;;13.40;99.90;;;;;;5065167;28;20110;-68
2023/09/02 01:29:03;;;;;;;7.07;3.67;;;13.40;99.90;;;;;;5019752;28;20058;-75
2023/09/02 01:31:31;;;;;;;6.55;3.70;;;13.40;99.90;;;;;;5064115;28;20040;-76
2023/09/02 01:33:59;;;;;;;8.90;3.88;;;13.40;99.90;;;;;;5063932;28;20114;-75
2023/09/02 01:36:27;;;;;;;6.78;3.88;;;13.30;99.90;;;;;;5065545;28;20056;-75
2023/09/02 01:38:53;;;;;;;7.03;3.90;;;13.30;99.90;;;;;;5065395;28;20080;-75
2023/09/02 01:41:22;;;;;;;6.65;3.90;;;13.30;99.90;;;;;;5064463;28;20057;-75
2023/09/02 01:43:48;;;;;;;6.82;3.53;;;13.30;99.90;;;;;;5064124;28;20473;-75
2023/09/02 01:46:15;;;;;;;8.25;3.88;;;13.20;99.90;;;;;;5064609;28;20121;-75
2023/09/02 01:48:41;;;;;;;7.30;3.75;;;13.20;99.90;;;;;;5064422;28;20143;-76
2023/09/02 01:51:08;;;;;;;9.15;4.53;;;13.20;99.90;;;;;;5060690;28;20148;-75
2023/09/02 01:53:34;;;;;;;7.95;3.88;;;13.20;99.90;;;;;;5064205;28;21794;-75
2023/09/02 01:56:00;;;;;;;8.32;4.40;;;13.20;99.90;;;;;;5066640;28;20041;-75
2023/09/02 01:58:26;;;;;;;9.45;4.63;;;13.10;99.90;;;;;;5066150;28;20115;-75
2023/09/02 02:00:51;;;;;;;8.00;4.35;;;13.10;99.90;;;;;;5066066;28;20098;-76
2023/09/02 02:03:27;;;;;;;7.10;4.45;;;12.90;99.90;;;;;;5050156;28;20040;-76
2023/09/02 02:05:53;;;;;;;10.10;4.20;;;13.10;99.90;;;;;;5065096;28;20049;-75
2023/09/02 02:08:45;;;;;;;10.55;4.60;;;13.10;99.90;;;;;;5048982;28;20720;-75
2023/09/02 02:11:13;;;;;;;8.25;4.93;;;13.00;99.90;;;;;;5048923;28;20068;-76
2023/09/02 02:13:39;;;;;;;9.00;4.63;;;13.00;99.90;;;;;;5046090;28;20044;-76
2023/09/02 02:16:05;;;;;;;7.30;4.28;;;13.00;99.90;;;;;;5064063;28;20798;-76
2023/09/02 02:18:31;;;;;;;8.57;4.63;;;13.00;99.90;;;;;;5048405;28;20127;-76
2023/09/02 02:21:04;;;;;;;8.43;4.55;;;13.00;99.90;;;;;;5063997;28;20048;-76
2023/09/02 02:23:31;;;;;;;8.27;4.07;;;13.00;99.90;;;;;;5063120;28;20047;-76
2023/09/02 02:26:04;;;;;;;7.35;4.47;;;12.90;99.90;;;;;;5065926;28;20115;-75
2023/09/02 02:28:30;;;;;;;9.02;4.80;;;12.90;99.90;;;;;;5047855;28;20417;-75
2023/09/02 02:30:58;;;;;;;11.70;5.10;;;12.90;99.90;;;;;;5044266;28;20040;-76
2023/09/02 02:33:24;;;;;;;7.60;4.90;;;12.80;99.90;;;;;;5057859;28;20513;-76
2023/09/02 02:35:50;;;;;;;9.30;5.25;;;12.90;99.90;;;;;;5063951;28;20052;-75
2023/09/02 02:38:16;;;;;;;7.15;4.85;;;12.80;99.90;;;;;;5064070;28;20047;-75
2023/09/02 02:40:45;;;;;;;9.43;5.22;;;12.80;99.90;;;;;;5065204;28;20076;-75
2023/09/02 02:43:11;;;;;;;8.52;5.03;;;12.80;99.90;;;;;;5067360;28;20056;-76
2023/09/02 02:45:37;;;;;;;9.32;4.80;;;12.80;99.90;;;;;;5069378;28;20044;-75
2023/09/02 02:48:03;;;;;;;9.43;5.20;;;12.70;99.90;;;;;;5063466;28;20037;-76
2023/09/02 02:50:28;;;;;;;8.55;5.05;;;12.70;99.90;;;;;;5067501;28;20460;-76
2023/09/02 02:52:54;;;;;;;8.73;5.10;;;12.70;99.90;;;;;;5061713;28;20044;-76
2023/09/02 02:55:20;;;;;;;8.35;5.38;;;12.70;99.90;;;;;;5067684;28;20157;-76
2023/09/02 02:57:46;;;;;;;7.40;4.80;;;12.70;99.90;;;;;;5064512;28;20056;-76
2023/09/02 03:00:15;;;;;;;7.60;4.68;;;12.60;99.90;;;;;;5066050;28;20530;-77
2023/09/02 03:02:41;;;;;;;8.68;5.35;;;12.60;99.90;;;;;;5061012;28;20919;-76
2023/09/02 03:05:09;;;;;;;7.68;4.82;;;12.60;99.90;;;;;;5051263;28;20052;-77
2023/09/02 03:07:35;;;;;;;7.53;4.78;;;12.60;99.90;;;;;;5067985;28;20079;-76
2023/09/02 03:10:01;;;;;;;8.30;4.88;;;12.60;99.90;;;;;;5068804;28;20036;-76
2023/09/02 03:12:27;;;;;;;8.65;5.07;;;12.50;99.90;;;;;;5067530;28;20056;-76
2023/09/02 03:14:52;;;;;;;9.13;5.15;;;12.60;99.90;;;;;;5069013;28;20047;-76
2023/09/02 03:17:20;;;;;;;10.23;5.18;;;12.50;99.90;;;;;;5069117;28;20043;-76
2023/09/02 03:19:49;;;;;;;8.05;5.32;;;12.50;99.90;;;;;;5046206;28;20052;-76
2023/09/02 03:22:15;;;;;;;9.93;5.20;;;12.40;99.90;;;;;;5066591;28;20083;-76
2023/09/02 03:24:41;;;;;;;8.93;4.97;;;12.40;99.90;;;;;;5066344;28;20140;-77
2023/09/02 03:27:07;;;;;;;8.30;5.32;;;12.40;99.90;;;;;;5067115;28;20556;-76
2023/09/02 03:29:34;;;;;;;10.13;5.20;;;12.40;99.90;;;;;;5066667;28;20059;-77
2023/09/02 03:32:00;;;;;;;7.50;4.80;;;12.40;99.90;;;;;;5068226;28;20055;-76
2023/09/02 03:34:25;;;;;;;10.32;5.63;;;12.40;99.90;;;;;;5069460;28;20063;-76
2023/09/02 03:36:51;;;;;;;8.75;5.50;;;12.40;99.90;;;;;;5047715;28;20382;-76
2023/09/02 03:39:17;;;;;;;9.52;5.47;;;12.40;99.90;;;;;;5066635;28;20044;-76
2023/09/02 03:41:45;;;;;;;9.10;5.82;;;12.40;99.90;;;;;;5066983;28;20048;-76
2023/09/02 03:44:11;;;;;;;9.02;5.55;;;12.40;99.90;;;;;;5065093;28;20033;-76
2023/09/02 03:46:37;;;;;;;11.15;5.70;;;12.40;99.90;;;;;;5066668;28;20521;-76
2023/09/02 03:49:03;;;;;;;7.95;5.38;;;12.40;99.90;;;;;;5067184;28;20059;-76
2023/09/02 03:51:28;;;;;;;8.40;5.82;;;12.40;99.90;;;;;;5063836;28;20060;-75
2023/09/02 03:53:54;;;;;;;8.20;5.45;;;12.40;99.90;;;;;;5057484;28;20206;-75
2023/09/02 03:56:20;;;;;;;10.55;6.00;;;12.40;99.90;;;;;;5067005;28;20051;-76
2023/09/02 03:58:46;;;;;;;8.85;5.90;;;12.40;99.90;;;;;;5030801;28;20064;-75
2023/09/02 04:01:14;;;;;;;10.02;5.70;;;12.40;99.90;;;;;;5065958;28;20075;-76
2023/09/02 04:03:40;;;;;;;9.38;6.10;;;12.40;99.90;;;;;;5049862;28;20056;-76
2023/09/02 04:06:06;;;;;;;8.98;5.65;;;12.40;99.90;;;;;;5065735;28;20128;-75
2023/09/02 04:08:34;;;;;;;7.90;5.43;;;12.40;99.90;;;;;;5048412;28;20308;-75
2023/09/02 04:11:01;;;;;;;8.88;5.85;;;12.40;99.90;;;;;;5063314;28;20040;-76
2023/09/02 04:13:30;;;;;;;10.57;6.90;;;12.40;99.90;;;;;;5062868;28;20091;-76
2023/09/02 04:15:57;;;;;;;14.50;6.35;;;12.40;99.90;;;;;;5065122;28;20055;-75
2023/09/02 04:18:23;;;;;;;9.35;6.28;;;12.40;99.90;;;;;;5060721;28;20052;-76
2023/09/02 04:20:49;;;;;;;13.90;6.85;;;12.40;99.90;;;;;;5061108;28;20044;-75
2023/09/02 04:23:16;;;;;;;11.75;6.28;;;12.40;99.90;;;;;;5046749;28;20626;-75
2023/09/02 04:25:50;;;;;;;10.00;6.18;;;12.40;99.90;;;;;;5063635;28;20136;-75
2023/09/02 04:28:16;;;;;;;9.65;6.50;;;12.40;99.90;;;;;;5059230;28;20054;-76
2023/09/02 04:30:43;;;;;;;11.82;6.45;;;12.40;99.90;;;;;;5061185;28;20064;-75
2023/09/02 04:33:15;;;;;;;10.13;6.75;;;12.40;99.90;;;;;;5062049;28;20071;-76
2023/09/02 04:35:43;;;;;;;10.82;7.13;;;12.40;99.90;;;;;;5062153;28;20400;-75
2023/09/02 04:38:09;;;;;;;11.15;7.00;;;12.40;99.90;;;;;;5046881;28;20051;-75
2023/09/02 04:40:39;;;;;;;13.30;7.60;;;12.40;99.90;;;;;;5046971;28;20554;-76
2023/09/02 04:43:06;;;;;;;12.93;7.57;;;12.50;99.90;;;;;;5060344;28;20052;-74
2023/09/02 04:45:36;;;;;;;11.02;7.47;;;12.50;99.90;;;;;;5068575;28;20129;-74
2023/09/02 04:48:05;;;;;;;10.68;7.45;;;12.50;99.90;;;;;;5062030;28;20048;-68
2023/09/02 04:50:32;;;;;;;10.98;7.07;;;12.50;99.90;;;;;;5061034;28;20541;-67
2023/09/02 04:52:59;;;;;;;9.75;6.78;;;12.50;99.90;;;;;;5064686;28;20044;-75
2023/09/02 04:55:26;;;;;;;11.48;7.55;;;12.50;99.90;;;;;;5062310;28;20523;-67
2023/09/02 04:57:52;;;;;;;11.50;7.47;;;12.50;99.90;;;;;;5043430;28;20060;-67
2023/09/02 05:00:18;;;;;;;11.20;7.25;;;12.50;99.90;;;;;;5059970;28;20489;-67
2023/09/02 05:02:46;;;;;;;11.60;6.97;;;12.50;99.90;;;;;;5058819;28;20151;-67
2023/09/02 05:05:17;;;;;;;11.95;7.68;;;12.50;99.90;;;;;;5060618;28;20052;-68
2023/09/02 05:07:43;;;;;;;12.27;8.25;;;12.50;99.90;;;;;;5064479;28;20143;-68
2023/09/02 05:10:09;;;;;;;11.25;7.00;;;12.50;99.90;;;;;;5061650;28;20131;-68
2023/09/02 05:12:36;;;;;;;11.20;7.13;;;12.50;99.90;;;;;;5061331;28;20029;-67
2023/09/02 05:15:03;;;;;;;10.30;6.95;;;12.50;99.90;;;;;;5058893;28;20557;-68
2023/09/02 05:17:30;;;;;;;10.63;7.35;;;12.50;99.90;;;;;;5062472;28;20129;-68
2023/09/02 05:19:56;;;;;;;10.27;6.82;;;12.50;99.90;;;;;;5062842;28;20052;-67
2023/09/02 05:22:22;;;;;;;9.77;6.20;;;12.50;99.90;;;;;;5042321;28;20044;-67
2023/09/02 05:24:48;;;;;;;11.05;6.68;;;12.50;99.90;;;;;;5060306;28;20040;-68
2023/09/02 05:27:14;;;;;;;9.43;6.68;;;12.50;99.90;;;;;;5061333;28;20129;-67
2023/09/02 05:29:39;;;;;;;9.45;6.55;;;12.50;99.90;;;;;;5060058;28;20123;-68
2023/09/02 05:32:05;;;;;;;12.52;7.07;;;12.50;99.90;;;;;;5055711;28;20668;-68
2023/09/02 05:34:31;;;;;;;10.27;6.72;;;12.50;99.90;;;;;;5058795;28;20115;-68
2023/09/02 05:36:57;;;;;;;10.60;7.10;;;12.50;99.90;;;;;;5060810;28;20044;-68
2023/09/02 05:39:22;;;;;;;11.10;7.60;;;12.50;99.90;;;;;;5044295;28;20083;-67
2023/09/02 05:41:48;;;;;;;12.70;8.23;;;12.50;99.90;;;;;;5056604;28;20101;-67
2023/09/02 05:44:14;;;;;;;13.45;7.82;;;12.50;99.90;;;;;;5054636;28;20608;-68
2023/09/02 05:46:40;;;;;;;13.02;8.20;;;12.50;99.90;;;;;;5052517;28;20094;-68
2023/09/02 05:49:05;;;;;;;12.15;8.65;;;12.60;99.90;;;;;;5042222;28;20053;-67
2023/09/02 05:51:31;;;;;;;11.93;8.32;;;12.60;99.90;;;;;;5057588;28;20029;-67
2023/09/02 05:53:57;;;;;;;13.02;7.95;;;12.60;99.90;;;;;;5040211;28;20045;-68
2023/09/02 05:56:23;;;;;;;11.23;7.80;;;12.60;99.90;;;;;;5055390;28;20052;-68
2023/09/02 05:58:49;;;;;;;13.75;8.50;;;12.60;99.90;;;;;;5054553;28;20067;-75
2023/09/02 06:01:17;;;;;;;14.13;8.75;;;12.70;99.90;;;;;;5057497;28;20412;-76
2023/09/02 06:03:43;;;;;;;13.68;8.98;;;12.70;99.90;;;;;;5055201;28;20056;-76
2023/09/02 06:06:12;;;;;;;12.68;7.70;;;12.70;99.90;;;;;;5056983;28;20052;-76
2023/09/02 06:08:39;;;;;;;12.35;8.18;;;12.70;99.90;;;;;;5056551;28;20111;-76
2023/09/02 06:11:05;;;;;;;11.68;7.60;;;12.70;99.90;;;;;;5060650;28;20072;-75
2023/09/02 06:13:31;;;;;;;13.10;7.85;;;12.70;99.90;;;;;;5058528;28;20494;-76
2023/09/02 06:16:03;;;;;;;11.85;8.00;;;12.80;99.90;;;;;;5057309;28;20701;-76
2023/09/02 06:18:31;;;;;;;11.98;7.50;;;12.80;99.90;;;;;;5044603;28;20120;-75
2023/09/02 06:20:57;;;;;;;11.88;8.30;;;12.80;99.90;;;;;;5063339;28;20052;-76
2023/09/02 06:23:24;;;;;;;14.20;9.68;;;12.80;99.90;;;;;;5047205;28;20133;-76
2023/09/02 06:26:00;;;;;;;11.73;8.73;;;12.80;99.90;;;;;;5061448;28;20198;-75
2023/09/02 06:28:28;;;;;;;15.07;9.57;;;12.90;99.90;;;;;;5065799;28;20052;-76
2023/09/02 06:30:55;;;;;;;16.13;9.70;;;13.00;99.90;;;;;;5068229;28;20556;-75
2023/09/02 06:33:22;;;;;;;15.93;10.63;;;13.00;99.90;;;;;;5063810;28;20052;-76
2023/09/02 06:35:49;;;;;;;17.40;10.48;;;13.10;99.90;;;;;;5061286;28;20048;-76
2023/09/02 06:38:16;;;;;;;16.33;10.50;;;13.10;99.90;;;;;;5070184;28;20056;-76
2023/09/02 06:40:41;;;;;;;15.00;10.43;;;13.20;99.90;;;;;;5066402;28;20102;-76
2023/09/02 06:43:07;;;;;;;14.90;9.40;;;13.20;99.90;;;;;;5046292;28;20048;-69
2023/09/02 06:45:33;;;;;;;16.80;10.80;;;13.20;99.90;;;;;;5063677;28;20049;-69
2023/09/02 06:47:58;;;;;;;19.17;10.75;;;13.30;99.90;;;;;;5072934;28;20121;-68
2023/09/02 06:50:27;;;;;;;17.67;11.50;;;13.40;99.90;;;;;;5063128;28;20500;-68
2023/09/02 06:52:52;;;;;;;17.75;11.52;;;13.40;99.90;;;;;;5041695;28;20040;-68
2023/09/02 06:55:18;;;;;;;19.83;11.70;;;13.50;99.90;;;;;;5066390;28;20055;-68
2023/09/02 06:57:44;;;;;;;20.38;12.13;;;13.60;99.90;;;;;;5067395;28;20147;-68
2023/09/02 07:00:11;;;;;;;20.52;11.93;;;13.70;99.90;;;;;;5068978;28;20102;-68
2023/09/02 07:02:37;;;;;;;18.13;10.98;;;13.70;99.90;;;;;;5064630;28;20083;-68
2023/09/02 07:05:03;;;;;;;19.35;11.95;;;13.80;99.90;;;;;;5054746;28;20103;-68
2023/09/02 07:07:28;;;;;;;19.20;10.98;;;13.90;99.90;;;;;;5066009;28;20059;-68
2023/09/02 07:09:54;;;;;;;18.02;12.57;;;14.00;99.90;;;;;;5066778;28;20052;-68
2023/09/02 07:12:20;;;;;;;15.90;10.77;;;14.10;99.90;;;;;;5053065;28;20040;-68
2023/09/02 07:14:46;;;;;;;19.60;12.98;;;14.20;99.90;;;;;;5069234;28;20032;-69
2023/09/02 07:17:12;;;;;;;19.75;12.90;;;14.20;99.90;;;;;;5068134;28;20033;-69
2023/09/02 07:19:40;;;;;;;21.23;12.27;;;14.40;99.90;;;;;;5072701;28;20119;-68
2023/09/02 07:22:06;;;;;;;21.60;12.23;;;14.50;99.90;;;;;;5045205;28;20124;-69
2023/09/02 07:24:32;;;;;;;19.00;12.10;;;14.60;99.90;;;;;;5067113;28;20047;-69
2023/09/02 07:26:58;;;;;;;17.52;11.07;;;14.80;99.90;;;;;;5066770;28;20862;-69
2023/09/02 07:29:23;;;;;;;15.90;11.52;;;14.90;99.90;;;;;;5064109;28;20067;-69
2023/09/02 07:31:49;;;;;;;18.05;12.00;;;15.10;99.90;;;;;;5066986;28;20110;-69
2023/09/02 07:34:15;;;;;;;18.02;10.73;;;15.20;99.90;;;;;;5065002;28;20048;-69
2023/09/02 07:36:42;;;;;;;17.33;11.50;;;15.30;99.90;;;;;;5064744;28;20038;-69
2023/09/02 07:39:08;;;;;;;18.63;11.90;;;15.50;99.90;;;;;;5043963;28;20048;-69
2023/09/02 07:41:34;;;;;;;18.58;10.35;;;15.60;99.90;;;;;;5053947;28;20382;-69
2023/09/02 07:44:00;;;;;;;14.30;10.45;;;15.80;99.90;;;;;;5063839;28;20101;-69
2023/09/02 07:46:26;;;;;;;18.02;11.00;;;15.90;99.90;;;;;;5061403;28;20163;-70
2023/09/02 07:48:52;;;;;;;16.55;10.85;;;16.00;99.90;;;;;;5065211;28;20493;-69
2023/09/02 07:51:18;;;;;;;17.23;10.63;;;16.10;99.90;;;;;;5066786;28;20044;-69
2023/09/02 07:53:44;;;;;;;15.85;10.68;;;16.20;99.90;;;;;;5066905;28;20037;-70
2023/09/02 07:56:10;;;;;;;16.17;10.93;;;16.30;99.90;;;;;;5059088;28;20421;-69
2023/09/02 07:58:36;;;;;;;18.17;10.77;;;16.50;99.90;;;;;;5056223;28;20041;-69
2023/09/02 08:01:02;;;;;;;16.98;10.40;;;16.60;99.90;;;;;;5054530;28;20505;-69
2023/09/02 08:03:28;;;;;;;13.80;10.63;;;16.70;99.90;;;;;;5041166;28;20524;-69
2023/09/02 08:05:54;;;;;;;13.98;9.50;;;16.80;99.90;;;;;;5053292;28;20102;-69
2023/09/02 08:08:20;;;;;;;15.65;9.80;;;16.90;99.90;;;;;;5049365;28;20127;-69
2023/09/02 08:10:46;;;;;;;15.25;9.90;;;17.00;99.90;;;;;;5033102;28;20051;-76
2023/09/02 08:13:11;;;;;;;16.15;9.93;;;17.10;99.90;;;;;;5054606;28;20041;-76
2023/09/02 08:15:40;;;;;;;15.05;9.30;;;17.20;99.90;;;;;;5054473;28;20044;-77
2023/09/02 08:18:06;;;;;;;15.68;9.60;;;17.30;99.90;;;;;;5035554;28;20501;-76
2023/09/02 08:20:33;;;;;;;13.40;9.90;;;17.30;99.90;;;;;;5035229;28;20047;-77
2023/09/02 08:22:59;;;;;;;14.00;9.75;;;17.50;99.90;;;;;;5050914;28;20063;-77
2023/09/02 08:25:25;;;;;;;14.25;9.05;;;17.60;99.90;;;;;;5043557;28;20298;-77
2023/09/02 08:27:51;;;;;;;14.63;9.35;;;17.70;99.90;;;;;;5045259;28;20118;-76
2023/09/02 08:30:17;;;;;;;13.88;9.82;;;17.70;99.90;;;;;;5050022;28;20124;-77
2023/09/02 08:32:45;;;;;;;14.82;9.52;;;17.90;99.90;;;;;;5047400;28;20056;-77
2023/09/02 08:35:12;;;;;;;15.95;9.77;;;17.90;99.90;;;;;;5030825;28;20044;-76
2023/09/02 08:37:40;;;;;;;15.77;9.63;;;18.00;99.90;;;;;;5050080;28;20048;-76
2023/09/02 08:40:07;;;;;;;16.42;9.50;;;18.10;99.90;;;;;;5044537;28;20051;-77
2023/09/02 08:42:36;;;;;;;16.73;9.52;;;18.20;99.90;;;;;;5048279;28;20044;-75
2023/09/02 08:45:11;;;;;;;12.90;8.32;;;18.30;99.90;;;;;;5048546;28;20053;-77
2023/09/02 08:47:43;;;;;;;14.10;8.95;;;18.40;99.90;;;;;;5046298;28;20488;-77
2023/09/02 08:50:10;;;;;;;11.50;8.20;;;18.40;99.90;;;;;;5048328;28;20134;-76
2023/09/02 08:52:36;;;;;;;13.40;8.27;;;18.50;99.90;;;;;;5044672;28;20052;-72
2023/09/02 08:55:07;;;;;;;13.82;8.43;;;18.60;99.90;;;;;;5042018;28;20103;-73
2023/09/02 08:57:33;;;;;;;15.55;8.18;;;18.70;99.90;;;;;;5051367;28;20126;-74
2023/09/02 09:00:00;;;;;;;13.45;8.43;;;18.70;99.90;;;;;;5048568;28;20109;-74
2023/09/02 09:02:27;;;;;;;13.50;7.88;;;18.80;99.90;;;;;;5050921;28;20493;-74
2023/09/02 09:04:54;;;;;;;11.70;7.32;;;18.90;99.90;;;;;;5049016;28;20072;-75
2023/09/02 09:07:20;;;;;;;14.43;8.52;;;18.90;99.90;;;;;;5032278;28;20060;-74
2023/09/02 09:09:47;;;;;;;12.48;8.02;;;18.90;99.90;;;;;;5047207;28;20555;-74
2023/09/02 09:12:16;;;;;;;19.73;9.52;;;19.00;99.90;;;;;;5047978;28;20064;-74
2023/09/02 09:14:46;;;;;;;16.25;9.60;;;19.00;99.90;;;;;;5050229;28;20393;-74
2023/09/02 09:17:13;;;;;;;11.83;7.60;;;19.10;99.90;;;;;;5047333;28;20037;-73
2023/09/02 09:19:40;;;;;;;14.57;9.45;;;19.10;99.90;;;;;;5050286;28;20055;-73
2023/09/02 09:22:06;;;;;;;15.45;7.95;;;19.10;99.90;;;;;;5044958;28;20137;-72
2023/09/02 09:24:31;;;;;;;14.98;8.20;;;19.10;99.90;;;;;;5050279;28;20040;-71
2023/09/02 09:27:05;;;;;;;14.77;7.78;;;19.10;99.90;;;;;;5047834;28;20063;-71
2023/09/02 09:29:41;;;;;;;13.15;7.57;;;19.10;99.90;;;;;;5028653;28;20391;-72
2023/09/02 09:32:12;;;;;;;11.02;7.32;;;19.20;99.90;;;;;;5048903;28;20045;-72
2023/09/02 09:34:44;;;;;;;15.93;7.85;;;19.30;99.90;;;;;;5044967;28;21718;-71
2023/09/02 09:37:10;;;;;;;18.48;7.80;;;19.30;99.90;;;;;;5042897;28;20643;-72
2023/09/02 09:39:42;;;;;;;14.23;7.95;;;19.40;99.90;;;;;;5047986;28;20041;-71
2023/09/02 09:42:10;;;;;;;13.93;7.85;;;19.50;99.90;;;;;;5029683;28;20040;-71
2023/09/02 09:44:54;;;;;;;11.32;6.80;;;19.50;99.90;;;;;;5046749;28;20050;-72
2023/09/02 09:47:24;;;;;;;11.15;6.55;;;19.60;99.90;;;;;;5042768;28;20127;-71
2023/09/02 09:49:50;;;;;;;14.57;7.18;;;19.60;99.90;;;;;;5040666;28;20683;-71
2023/09/02 09:52:18;;;;;;;10.20;6.45;;;19.70;99.90;;;;;;5050700;28;20469;-71
2023/09/02 09:54:52;;;;;;;15.32;7.78;;;19.70;99.90;;;;;;5054856;28;20469;-71
2023/09/02 09:57:30;;;;;;;9.10;6.60;;;19.70;99.90;;;;;;5051998;28;20520;-71
2023/09/02 09:59:56;;;;;;;10.73;6.70;;;19.80;99.90;;;;;;5052828;28;20040;-71
2023/09/02 10:02:23;;;;;;;13.63;6.32;;;19.80;99.90;;;;;;5050046;28;20044;-71
2023/09/02 10:04:57;;;;;;;14.30;6.32;;;19.80;99.90;;;;;;5035172;28;20519;-72
2023/09/02 10:07:27;;;;;;;13.10;6.45;;;19.90;99.90;;;;;;5054327;28;20053;-71
2023/09/02 10:09:55;;;;;;;13.65;7.10;;;19.90;99.90;;;;;;5053631;28;20391;-71
2023/09/02 10:12:21;;;;;;;11.90;6.95;;;19.90;99.90;;;;;;5052966;28;20129;-71
2023/09/02 10:14:48;;;;;;;11.73;7.03;;;19.90;99.90;;;;;;5054492;28;20178;-71
2023/09/02 10:17:15;;;;;;;14.75;7.53;;;20.00;99.90;;;;;;5053640;28;20439;-71
2023/09/02 10:19:42;;;;;;;12.57;6.78;;;19.90;99.90;;;;;;5053512;28;20036;-72
2023/09/02 10:22:08;;;;;;;11.68;6.95;;;19.80;99.90;;;;;;5036619;28;20041;-72
2023/09/02 10:24:43;;;;;;;14.75;7.85;;;19.80;99.90;;;;;;5052383;28;20521;-72
2023/09/02 10:27:18;;;;;;;12.98;6.65;;;19.70;99.90;;;;;;5053907;28;20045;-72
2023/09/02 10:29:46;;;;;;;12.98;6.30;;;19.70;99.90;;;;;;5036062;28;20045;-73
2023/09/02 10:32:15;;;;;;;12.13;7.00;;;19.70;99.90;;;;;;5038336;28;20512;-71
2023/09/02 10:35:04;;;;;;;10.88;5.90;;;19.70;99.90;;;;;;5055745;28;20037;-71
2023/09/02 10:37:44;;;;;;;14.85;6.63;;;19.70;99.90;;;;;;5049282;28;20048;-71
2023/09/02 10:40:15;;;;;;;14.18;7.15;;;19.80;99.90;;;;;;5050364;28;20033;-71
2023/09/02 10:42:41;;;;;;;13.55;7.75;;;19.90;99.90;;;;;;5052341;28;20037;-71
2023/09/02 10:45:07;;;;;;;10.93;6.55;;;19.90;99.90;;;;;;5054522;28;20049;-70
2023/09/02 10:47:33;;;;;;;10.95;5.93;;;19.90;99.90;;;;;;5047800;28;20160;-71
2023/09/02 10:50:00;;;;;;;12.05;5.75;;;20.00;99.90;;;;;;5050655;28;21816;-71
2023/09/02 10:52:26;;;;;;;15.27;5.97;;;20.00;99.90;;;;;;5054702;28;20087;-71
2023/09/02 10:55:04;;;;;;;11.32;4.72;;;20.00;99.90;;;;;;5053453;28;20127;-71
2023/09/02 10:57:49;;;;;;;10.50;4.80;;;19.90;99.90;;;;;;5055547;28;20527;-71
2023/09/02 11:00:19;;;;;;;10.05;5.13;;;20.00;99.90;;;;;;5033302;28;20080;-73
2023/09/02 11:02:47;;;;;;;9.45;5.28;;;20.00;99.90;;;;;;5053653;28;20441;-71
2023/09/02 11:05:13;;;;;;;9.23;5.60;;;20.10;99.90;;;;;;5051421;28;20489;-71
2023/09/02 11:07:40;;;;;;;12.80;7.10;;;20.10;99.90;;;;;;5049524;28;20745;-71
2023/09/02 11:10:11;;;;;;;10.13;4.80;;;20.20;99.90;;;;;;5054374;28;20113;-71
2023/09/02 11:12:56;;;;;;;10.70;5.18;;;20.30;99.90;;;;;;5039387;28;20044;-70
2023/09/02 11:15:22;;;;;;;10.75;5.50;;;20.40;99.90;;;;;;5054392;28;20045;-70
2023/09/02 11:17:47;;;;;;;8.55;4.72;;;20.50;99.90;;;;;;5054572;28;20618;-70
2023/09/02 11:20:15;;;;;;;10.30;5.22;;;20.50;99.90;;;;;;5049878;28;20078;-71
2023/09/02 11:23:06;;;;;;;12.75;5.68;;;20.50;99.90;;;;;;5050314;28;20044;-71
2023/09/02 11:25:43;;;;;;;11.00;4.78;;;20.50;99.90;;;;;;5048092;28;20048;-71
2023/09/02 11:28:29;;;;;;;10.48;5.10;;;20.50;99.90;;;;;;5050298;28;20137;-71
2023/09/02 11:31:13;;;;;;;9.40;4.47;;;20.50;99.90;;;;;;5049633;28;20068;-71
2023/09/02 11:33:44;;;;;;;9.00;3.75;;;20.60;99.90;;;;;;5042679;28;20087;-70
2023/09/02 11:36:12;;;;;;;10.43;4.78;;;20.50;99.90;;;;;;5039420;28;20064;-70
2023/09/02 11:38:38;;;;;;;10.63;4.78;;;20.60;99.90;;;;;;5058756;28;20037;-71
2023/09/02 11:41:04;;;;;;;10.43;4.40;;;20.60;99.90;;;;;;5054795;28;20508;-71
2023/09/02 11:43:31;;;;;;;8.10;4.53;;;20.70;99.90;;;;;;5060423;28;20044;-70
2023/09/02 11:45:59;;;;;;;12.02;3.75;;;20.70;99.90;;;;;;5040360;28;20390;-71
2023/09/02 11:48:29;;;;;;;8.32;3.25;;;20.80;99.90;;;;;;5035713;28;20157;-70
2023/09/02 11:50:59;;;;;;;5.88;3.13;;;20.90;99.90;;;;;;5060115;28;20464;-70
2023/09/02 11:53:29;;;;;;;7.20;3.13;;;20.90;99.90;;;;;;5057708;28;20413;-70
2023/09/02 11:55:56;;;;;;;5.57;2.70;;;20.80;99.90;;;;;;5053884;28;20405;-70
2023/09/02 11:58:23;;;;;;;10.02;3.45;;;20.80;99.90;;;;;;5056751;28;20123;-70
2023/09/02 12:00:49;;;;;;;8.57;3.65;;;20.70;99.90;;;;;;5051636;28;20592;-70
2023/09/02 12:03:21;;;;;;;7.35;3.50;;;20.60;99.90;;;;;;5050402;28;20048;-70
2023/09/02 12:05:52;;;;;;;7.93;3.03;;;20.60;99.90;;;;;;5057703;28;20054;-70
2023/09/02 12:08:18;;;;;;;10.35;3.35;;;20.60;99.90;;;;;;5037452;28;20553;-70
2023/09/02 12:10:48;;;;;;;7.13;2.75;;;20.70;99.90;;;;;;5061012;28;20052;-71
2023/09/02 12:13:15;;;;;;;6.50;2.95;;;20.60;99.90;;;;;;5060150;28;20071;-71
2023/09/02 12:15:41;;;;;;;8.15;2.90;;;20.60;99.90;;;;;;5061666;28;20046;-71
2023/09/02 12:18:07;;;;;;;7.47;2.83;;;20.60;99.90;;;;;;5061766;28;20109;-71
2023/09/02 12:20:33;;;;;;;6.10;2.92;;;20.50;99.90;;;;;;5061814;28;20468;-71
2023/09/02 12:22:59;;;;;;;8.55;2.95;;;20.60;99.90;;;;;;5061768;28;20049;-71
2023/09/02 12:25:26;;;;;;;8.07;2.83;;;20.60;99.90;;;;;;5059724;28;20044;-70
2023/09/02 12:27:53;;;;;;;6.53;2.42;;;20.70;99.90;;;;;;5061470;28;20072;-70
2023/09/02 12:30:33;;;;;;;7.15;2.50;;;20.60;99.90;;;;;;5046910;28;20514;-70
2023/09/02 12:32:59;;;;;;;5.93;2.10;;;20.60;99.90;;;;;;5041740;28;20048;-70
2023/09/02 12:35:34;;;;;;;7.00;2.28;;;20.60;99.90;;;;;;5070614;27;20402;-69
2023/09/02 12:38:08;;;;;;;6.38;3.03;;;20.60;99.90;;;;;;5054570;28;20517;-68
2023/09/02 12:40:34;;;;;;;5.85;2.35;;;20.70;99.90;;;;;;5070591;28;20521;-69
2023/09/02 12:43:02;;;;;;;5.93;2.58;;;20.70;99.90;;;;;;5067397;28;20143;-70
2023/09/02 12:45:31;;;;;;;6.50;1.98;;;20.60;99.90;;;;;;5084941;28;20058;-71